Time;durP1;ratioP1;P1;durP2;ratioP2;P2;SDS_P1;SDS_P2;PMS_P1;PMS_P2;Temp;Humidity;BMP_temperature;BMP_pressure;BME280_temperature;BME280_humidity;BME280_pressure;Samples;Min_cycle;Max_cycle;Signal;HPM_P1;HPM_P2
2022/07/20 00:01:39;;;;;;;7.53;2.10;;;;;;;18.89;74.46;100330.16;5030961;28;20461;-82
2022/07/20 00:04:04;;;;;;;4.05;1.88;;;;;;;18.91;73.24;100331.25;5046930;28;20128;-82
2022/07/20 00:06:30;;;;;;;5.95;2.47;;;;;;;18.84;74.97;100337.25;5031414;28;20048;-82
2022/07/20 00:11:39;;;;;;;2.20;1.80;;;;;;;18.88;72.46;100337.84;5031478;28;20052;-82
2022/07/20 00:14:05;;;;;;;3.17;1.77;;;;;;;18.87;74.22;100335.50;5030174;28;20398;-82
2022/07/20 00:16:32;;;;;;;3.58;2.00;;;;;;;18.82;74.73;100339.78;5031548;28;20046;-82
2022/07/20 00:18:58;;;;;;;4.05;1.83;;;;;;;18.81;75.17;100338.22;5030000;28;20048;-82
2022/07/20 00:21:24;;;;;;;3.05;2.00;;;;;;;18.82;74.07;100339.00;5030044;28;20469;-82
2022/07/20 00:23:50;;;;;;;2.60;1.88;;;;;;;18.89;72.91;100332.97;5031370;28;20542;-82
2022/07/20 00:26:16;;;;;;;3.35;1.73;;;;;;;18.84;69.78;100319.63;5031596;28;20077;-82
2022/07/20 00:28:41;;;;;;;2.75;1.80;;;;;;;18.92;67.81;100329.97;5031050;28;20128;-82
2022/07/20 00:31:07;;;;;;;4.75;2.08;;;;;;;18.84;73.34;100342.88;5031427;28;20033;-82
2022/07/20 00:33:33;;;;;;;4.03;1.98;;;;;;;18.80;73.44;100347.16;5030631;28;20038;-82
2022/07/20 00:35:58;;;;;;;3.42;1.90;;;;;;;18.64;73.97;100335.13;5031530;28;20069;-82
2022/07/20 00:38:24;;;;;;;3.35;1.65;;;;;;;18.67;74.20;100339.03;5029576;28;20080;-82
2022/07/20 00:40:50;;;;;;;2.83;2.10;;;;;;;18.68;73.85;100340.56;5013769;28;20073;-82
2022/07/20 00:43:15;;;;;;;2.38;2.08;;;;;;;18.57;74.61;100313.06;5045521;28;20037;-82
2022/07/20 00:45:41;;;;;;;6.60;1.90;;;;;;;18.54;75.79;100333.69;5030862;28;20044;-82
2022/07/20 00:48:06;;;;;;;3.58;2.10;;;;;;;18.38;76.97;100344.59;5029568;28;20045;-82
2022/07/20 00:50:32;;;;;;;2.70;2.10;;;;;;;18.31;76.69;100342.97;5030955;28;20108;-81
2022/07/20 00:52:59;;;;;;;3.70;2.13;;;;;;;18.25;78.45;100344.09;5029601;28;20067;-82
2022/07/20 00:55:25;;;;;;;4.15;2.03;;;;;;;18.20;77.46;100328.69;5029563;28;20556;-82
2022/07/20 00:57:50;;;;;;;4.03;1.80;;;;;;;18.20;77.76;100328.69;5029801;28;20037;-82
2022/07/20 01:00:16;;;;;;;4.53;2.05;;;;;;;18.07;78.13;100336.63;5030401;28;20052;-82
2022/07/20 01:02:42;;;;;;;2.95;1.95;;;;;;;18.09;77.04;100340.50;5029491;28;20034;-81
2022/07/20 01:05:14;;;;;;;3.08;1.90;;;;;;;18.11;76.05;100337.22;5029088;28;20149;-81
2022/07/20 01:07:48;;;;;;;3.47;2.00;;;;;;;18.04;76.70;100327.13;4997498;28;20564;-81
2022/07/20 01:10:13;;;;;;;;;;;;;;;17.98;77.46;100333.91;5030034;28;20049;-81
2022/07/20 01:12:43;;;;;;;2.60;2.10;;;;;;;17.97;76.86;100327.50;5013153;28;19923;-81
2022/07/20 01:15:09;;;;;;;3.00;2.03;;;;;;;17.91;77.67;100334.28;5013088;28;20565;-81
2022/07/20 01:17:35;;;;;;;3.50;2.00;;;;;;;17.92;77.16;100333.78;5030407;28;20049;-81
2022/07/20 01:20:00;;;;;;;3.42;1.90;;;;;;;17.86;78.36;100332.91;5028878;28;20092;-81
2022/07/20 01:22:26;;;;;;;3.72;1.90;;;;;;;17.84;79.11;100345.84;5030642;28;20521;-81
2022/07/20 01:24:51;;;;;;;3.05;2.00;;;;;;;17.86;77.77;100343.34;5029650;28;20415;-80
2022/07/20 01:27:17;;;;;;;3.13;1.75;;;;;;;17.82;78.38;100339.97;5030066;28;20041;-81
2022/07/20 01:29:42;;;;;;;4.10;1.80;;;;;;;17.79;77.69;100326.91;5030744;28;20491;-80
2022/07/20 01:32:08;;;;;;;3.45;2.00;;;;;;;17.82;78.04;100331.53;5012885;28;20045;-79
2022/07/20 01:34:33;;;;;;;2.15;1.63;;;;;;;17.83;77.77;100327.47;5030101;28;20549;-79
2022/07/20 01:36:59;;;;;;;3.42;1.90;;;;;;;17.79;78.44;100321.28;5030392;28;20075;-79
2022/07/20 01:39:25;;;;;;;3.78;1.73;;;;;;;17.75;76.39;100331.91;5029429;28;20092;-79
2022/07/20 01:41:53;;;;;;;3.15;1.70;;;;;;;17.77;72.46;100323.78;5029454;28;20438;-79
2022/07/20 01:44:21;;;;;;;4.75;1.65;;;;;;;17.85;71.26;100330.56;4996892;28;20048;-79
2022/07/20 01:46:50;;;;;;;8.85;2.15;;;;;;;17.87;72.25;100322.47;5014964;28;20053;-79
2022/07/20 01:49:17;;;;;;;3.17;1.67;;;;;;;17.87;73.68;100339.31;5033652;28;20061;-79
2022/07/20 01:51:43;;;;;;;5.20;2.00;;;;;;;17.84;74.83;100329.78;5016658;28;20037;-80
2022/07/20 01:54:09;;;;;;;3.08;1.73;;;;;;;17.85;74.84;100334.16;5032844;28;20423;-80
2022/07/20 01:56:34;;;;;;;3.17;1.80;;;;;;;17.84;74.16;100329.00;5034513;28;20033;-79
2022/07/20 01:59:00;;;;;;;2.85;1.48;;;;;;;17.80;73.13;100326.41;5034296;28;20045;-80
2022/07/20 02:01:26;;;;;;;3.88;1.90;;;;;;;17.81;73.57;100329.97;5032335;28;20502;-80
2022/07/20 02:03:51;;;;;;;3.45;1.80;;;;;;;17.77;75.30;100326.59;5032586;28;20053;-80
2022/07/20 02:06:17;;;;;;;3.33;1.77;;;;;;;17.79;74.23;100324.09;5049393;28;20052;-79
2022/07/20 02:08:42;;;;;;;3.92;1.92;;;;;;;17.63;76.50;100317.63;5032376;28;20045;-79
2022/07/20 02:11:08;;;;;;;4.82;1.90;;;;;;;17.48;79.64;100324.41;5029378;28;20037;-79
2022/07/20 02:13:35;;;;;;;3.83;2.00;;;;;;;17.46;80.26;100330.53;5013790;28;20575;-79
2022/07/20 02:16:17;;;;;;;3.55;2.08;;;;;;;17.48;79.74;100327.22;5013123;28;20038;-79
2022/07/20 02:18:49;;;;;;;4.07;1.75;;;;;;;17.36;80.18;100329.00;4998566;28;20077;-79
2022/07/20 02:21:15;;;;;;;3.97;2.03;;;;;;;17.24;81.63;100328.00;5012595;28;20579;-79
2022/07/20 02:23:41;;;;;;;5.35;1.83;;;;;;;17.14;81.96;100334.91;5025883;28;20527;-79
2022/07/20 02:26:07;;;;;;;2.85;1.70;;;;;;;17.15;82.41;100330.06;5016091;28;20049;-80
2022/07/20 02:28:33;;;;;;;4.60;2.08;;;;;;;17.19;81.89;100344.69;5033505;28;20088;-80
2022/07/20 02:30:58;;;;;;;2.83;2.10;;;;;;;17.16;81.18;100334.44;5015914;28;20029;-80
2022/07/20 02:33:24;;;;;;;4.47;1.88;;;;;;;17.13;81.99;100343.78;5032070;28;20554;-80
2022/07/20 02:35:49;;;;;;;5.00;2.00;;;;;;;17.07;81.18;100345.66;5033072;28;20064;-79
2022/07/20 02:38:15;;;;;;;6.32;2.30;;;;;;;17.07;79.98;100338.03;5032801;28;20399;-80
2022/07/20 02:40:40;;;;;;;3.38;2.00;;;;;;;17.01;80.29;100339.19;5031913;28;20052;-80
2022/07/20 02:43:06;;;;;;;3.60;2.35;;;;;;;16.95;80.57;100329.84;5031876;28;20045;-80
2022/07/20 02:45:32;;;;;;;3.72;1.92;;;;;;;16.90;81.41;100336.91;5031911;28;20061;-80
2022/07/20 02:48:02;;;;;;;4.40;2.13;;;;;;;16.76;82.63;100346.75;5031722;28;20057;-80
2022/07/20 02:50:33;;;;;;;4.07;1.90;;;;;;;16.73;81.35;100344.91;5031480;28;20044;-80
2022/07/20 02:52:59;;;;;;;4.25;2.00;;;;;;;16.69;81.52;100338.69;5015060;28;20052;-80
2022/07/20 02:55:25;;;;;;;2.63;1.98;;;;;;;16.68;82.28;100353.94;4998916;28;20434;-80
2022/07/20 02:57:50;;;;;;;4.13;2.20;;;;;;;16.62;83.19;100344.59;5031132;28;20042;-80
2022/07/20 03:00:16;;;;;;;4.25;2.10;;;;;;;16.61;83.29;100351.47;5015013;28;20124;-80
2022/07/20 03:02:41;;;;;;;5.75;2.17;;;;;;;16.61;83.17;100343.06;5031121;28;20543;-80
2022/07/20 03:05:07;;;;;;;4.93;2.10;;;;;;;16.64;81.85;100342.13;5031549;28;20045;-81
2022/07/20 03:07:33;;;;;;;3.85;2.20;;;;;;;16.72;81.29;100348.94;5030932;28;20045;-81
2022/07/20 03:09:59;;;;;;;3.08;1.95;;;;;;;16.74;80.66;100340.81;5048362;28;20046;-81
2022/07/20 03:12:24;;;;;;;3.47;2.00;;;;;;;16.71;83.18;100346.59;5030668;28;20100;-81
2022/07/20 03:14:50;;;;;;;4.03;2.05;;;;;;;16.75;84.57;100345.19;5031357;28;20053;-81
2022/07/20 03:17:16;;;;;;;8.88;2.70;;;;;;;16.82;84.26;100335.69;5031241;28;20438;-81
2022/07/20 03:19:42;;;;;;;4.43;2.28;;;;;;;16.94;82.96;100343.09;5032161;28;20030;-81
2022/07/20 03:22:08;;;;;;;5.35;2.33;;;;;;;17.02;83.05;100332.31;5032508;28;20100;-80
2022/07/20 03:24:33;;;;;;;2.53;2.08;;;;;;;17.04;83.44;100332.63;5032030;28;20041;-79
2022/07/20 03:26:59;;;;;;;2.92;2.00;;;;;;;17.00;83.24;100340.41;5032376;28;20120;-79
2022/07/20 03:29:24;;;;;;;3.13;2.15;;;;;;;16.93;82.70;100347.16;5014134;28;20038;-79
2022/07/20 03:31:50;;;;;;;2.70;2.13;;;;;;;16.90;82.65;100355.72;5032467;28;20469;-79
2022/07/20 03:34:16;;;;;;;5.70;2.33;;;;;;;16.80;83.36;100354.97;5030986;28;20034;-80
2022/07/20 03:36:41;;;;;;;3.53;2.00;;;;;;;16.72;83.40;100360.13;5030711;28;20119;-80
2022/07/20 03:39:07;;;;;;;4.88;2.08;;;;;;;16.67;82.40;100360.75;5030830;28;20061;-80
2022/07/20 03:41:32;;;;;;;4.90;1.83;;;;;;;16.69;82.20;100360.31;5030316;28;20034;-80
2022/07/20 03:43:58;;;;;;;4.28;2.10;;;;;;;16.69;82.54;100360.31;5030390;28;20395;-80
2022/07/20 03:46:23;;;;;;;4.03;2.20;;;;;;;16.68;82.84;100359.53;5030580;28;20513;-80
2022/07/20 03:48:49;;;;;;;4.60;2.05;;;;;;;16.61;83.05;100365.47;5031821;28;20053;-80
2022/07/20 03:51:14;;;;;;;9.07;2.85;;;;;;;16.58;83.31;100360.78;5031910;28;20539;-81
2022/07/20 03:53:40;;;;;;;5.47;2.30;;;;;;;16.62;83.66;100367.00;5013848;28;20042;-80
2022/07/20 03:56:06;;;;;;;4.22;2.50;;;;;;;16.52;85.54;100362.66;5010148;28;20033;-80
2022/07/20 03:58:31;;;;;;;3.95;2.40;;;;;;;16.64;85.52;100364.53;5029625;28;20048;-81
2022/07/20 04:00:57;;;;;;;3.20;2.30;;;;;;;16.72;85.76;100365.75;5030494;28;20136;-79
2022/07/20 04:03:22;;;;;;;4.93;2.13;;;;;;;16.71;85.62;100369.00;5040287;28;20419;-80
2022/07/20 04:05:48;;;;;;;3.70;2.10;;;;;;;16.79;84.13;100371.00;5033859;28;20064;-81
2022/07/20 04:08:13;;;;;;;3.03;2.13;;;;;;;16.85;84.00;100364.78;5050939;28;20052;-81
2022/07/20 04:10:39;;;;;;;3.72;2.00;;;;;;;16.95;82.99;100366.28;5049822;28;20029;-80
2022/07/20 04:13:05;;;;;;;6.30;2.45;;;;;;;17.03;82.51;100367.50;5033229;28;20098;-81
2022/07/20 04:15:31;;;;;;;6.60;2.50;;;;;;;17.15;83.40;100366.50;5017043;28;20049;-81
2022/07/20 04:17:57;;;;;;;5.35;2.25;;;;;;;17.17;83.12;100372.44;5017137;28;20595;-80
2022/07/20 04:20:23;;;;;;;5.72;2.80;;;;;;;17.18;83.04;100373.97;5051353;28;20074;-81
2022/07/20 04:22:48;;;;;;;6.43;2.50;;;;;;;17.20;83.35;100371.47;5016774;28;20029;-80
2022/07/20 04:25:14;;;;;;;3.60;2.40;;;;;;;17.26;83.16;100380.81;5033426;28;20052;-81
2022/07/20 04:27:39;;;;;;;5.95;2.75;;;;;;;17.29;83.35;100371.44;5032530;28;20049;-80
2022/07/20 04:30:05;;;;;;;4.70;2.20;;;;;;;17.38;82.99;100373.41;5051276;28;20048;-81
2022/07/20 04:32:31;;;;;;;4.70;2.50;;;;;;;17.36;83.82;100367.50;5032596;28;20039;-81
2022/07/20 04:34:56;;;;;;;4.15;2.38;;;;;;;17.37;83.90;100369.81;5033096;28;20041;-81
2022/07/20 04:37:22;;;;;;;4.35;2.50;;;;;;;17.39;83.41;100372.91;5016470;28;20049;-80
2022/07/20 04:39:48;;;;;;;4.25;2.63;;;;;;;17.46;82.89;100372.59;5016648;28;20064;-81
2022/07/20 04:42:13;;;;;;;4.63;2.40;;;;;;;17.52;82.32;100381.88;5016527;28;20037;-80
2022/07/20 04:44:39;;;;;;;4.15;2.50;;;;;;;17.60;81.49;100380.31;5032921;28;20098;-80
2022/07/20 04:47:05;;;;;;;4.20;2.50;;;;;;;17.60;81.62;100383.13;5033029;28;20048;-81
2022/07/20 04:49:30;;;;;;;4.18;2.40;;;;;;;17.69;82.27;100385.09;5016415;28;20136;-80
2022/07/20 04:51:56;;;;;;;3.08;2.35;;;;;;;17.73;81.51;100384.91;5033170;28;20047;-80
2022/07/20 04:54:22;;;;;;;6.30;2.45;;;;;;;17.79;81.60;100383.78;5032775;28;20506;-80
2022/07/20 04:56:48;;;;;;;4.95;2.60;;;;;;;17.85;80.94;100369.84;5033075;28;20045;-80
2022/07/20 04:59:14;;;;;;;3.83;2.40;;;;;;;17.99;80.38;100381.16;5032572;28;20037;-81
2022/07/20 05:01:40;;;;;;;6.97;2.70;;;;;;;18.06;79.99;100386.38;5036180;28;20168;-81
2022/07/20 05:04:06;;;;;;;3.72;2.60;;;;;;;18.19;79.53;100383.31;5030628;28;20124;-81
2022/07/20 05:06:31;;;;;;;4.25;2.55;;;;;;;18.31;79.34;100390.69;5030716;28;20049;-81
2022/07/20 05:08:57;;;;;;;4.07;2.30;;;;;;;18.46;79.23;100388.69;5029454;28;20042;-81
2022/07/20 05:11:22;;;;;;;5.40;2.40;;;;;;;18.62;78.23;100393.06;5020849;28;20084;-81
2022/07/20 05:13:48;;;;;;;3.40;2.30;;;;;;;18.83;77.54;100391.91;5022021;28;20028;-81
2022/07/20 05:16:14;;;;;;;4.28;2.55;;;;;;;19.00;76.59;100381.72;5050807;28;20041;-81
2022/07/20 05:18:40;;;;;;;5.05;2.60;;;;;;;19.16;75.82;100388.88;5032534;28;20113;-81
2022/07/20 05:21:05;;;;;;;3.50;2.30;;;;;;;19.31;74.29;100389.63;5034043;28;20057;-81
2022/07/20 05:23:31;;;;;;;4.47;2.58;;;;;;;19.44;74.00;100384.47;5036465;28;20076;-81
2022/07/20 05:25:56;;;;;;;6.35;2.80;;;;;;;19.68;73.08;100389.13;5036284;28;20068;-81
2022/07/20 05:28:22;;;;;;;5.45;2.70;;;;;;;19.86;71.15;100388.84;5054573;28;20053;-82
2022/07/20 05:30:49;;;;;;;12.00;2.83;;;;;;;20.20;69.97;100382.38;5036635;28;20049;-82
2022/07/20 05:33:14;;;;;;;4.03;2.42;;;;;;;20.36;69.54;100390.25;5019719;28;20120;-82
2022/07/20 05:35:40;;;;;;;6.28;2.60;;;;;;;20.71;68.09;100386.47;5036448;28;20112;-82
2022/07/20 05:38:06;;;;;;;8.68;2.40;;;;;;;20.99;67.44;100390.31;5054350;28;20033;-82
2022/07/20 05:40:31;;;;;;;4.03;2.20;;;;;;;21.38;65.91;100388.59;5036347;28;20071;-82
2022/07/20 05:42:57;;;;;;;5.07;2.30;;;;;;;21.59;64.88;100380.00;5035735;28;20052;-82
2022/07/20 05:45:22;;;;;;;5.10;2.50;;;;;;;21.84;62.07;100390.38;5020322;28;20040;-82
2022/07/20 05:47:48;;;;;;;4.80;2.30;;;;;;;22.05;61.03;100380.47;5036167;28;20060;-82
2022/07/20 05:50:14;;;;;;;6.78;2.47;;;;;;;22.47;59.06;100390.88;5003540;28;20049;-82
2022/07/20 05:52:39;;;;;;;3.50;2.30;;;;;;;22.71;58.87;100398.91;5019745;28;20048;-82
2022/07/20 05:55:05;;;;;;;8.75;2.40;;;;;;;23.03;60.02;100386.06;5019758;28;20037;-82
2022/07/20 05:57:31;;;;;;;6.88;2.70;;;;;;;23.19;59.90;100388.13;5035511;28;20040;-82
2022/07/20 05:59:57;;;;;;;5.80;2.20;;;;;;;23.37;59.75;100378.34;5036102;28;20045;-82
2022/07/20 06:02:22;;;;;;;6.15;2.60;;;;;;;23.57;59.17;100377.28;5035940;28;20067;-82
2022/07/20 06:04:48;;;;;;;7.53;2.40;;;;;;;23.88;58.97;100385.41;5035896;28;20052;-82
2022/07/20 06:07:13;;;;;;;5.63;2.40;;;;;;;24.12;57.57;100377.06;5035950;28;20402;-82
2022/07/20 06:09:39;;;;;;;7.85;2.38;;;;;;;24.27;58.10;100371.06;5035609;28;20041;-82
2022/07/20 06:12:05;;;;;;;3.97;2.50;;;;;;;24.54;57.74;100384.34;5035172;28;20533;-82
2022/07/20 06:14:30;;;;;;;5.28;2.40;;;;;;;24.77;56.75;100378.47;5035679;28;20037;-82
2022/07/20 06:16:56;;;;;;;3.50;2.08;;;;;;;24.79;54.73;100370.97;5053899;28;20049;-82
2022/07/20 06:19:21;;;;;;;5.53;2.00;;;;;;;24.76;53.79;100372.03;5035530;28;20029;-82
2022/07/20 06:21:47;;;;;;;3.55;1.92;;;;;;;24.94;52.96;100373.47;5053524;28;20773;-82
2022/07/20 06:24:14;;;;;;;3.95;2.08;;;;;;;25.40;50.13;100381.03;5035423;28;20132;-82
2022/07/20 06:26:40;;;;;;;3.67;2.00;;;;;;;25.68;47.06;100380.78;5035434;28;20107;-81
2022/07/20 06:29:05;;;;;;;4.60;2.13;;;;;;;25.81;43.85;100384.47;5019139;28;20033;-82
2022/07/20 06:31:31;;;;;;;3.88;1.85;;;;;;;26.13;43.79;100378.91;5034969;28;20544;-82
2022/07/20 06:33:56;;;;;;;4.68;1.70;;;;;;;26.31;41.05;100378.19;5053301;28;20040;-81
2022/07/20 06:36:22;;;;;;;3.35;1.70;;;;;;;26.67;39.18;100373.00;5035475;28;20115;-81
2022/07/20 06:38:47;;;;;;;3.58;1.60;;;;;;;27.11;40.07;100382.13;5034809;28;20076;-81
2022/07/20 06:41:13;;;;;;;7.03;2.25;;;;;;;27.41;41.56;100379.78;5018590;28;20134;-81
2022/07/20 06:43:39;;;;;;;4.57;2.00;;;;;;;27.36;41.50;100369.25;5034895;28;20028;-81
2022/07/20 06:46:05;;;;;;;4.68;1.88;;;;;;;27.69;41.53;100385.75;5018770;28;20052;-81
2022/07/20 06:48:30;;;;;;;6.18;2.42;;;;;;;27.97;41.01;100370.16;5034502;28;20041;-81
2022/07/20 06:50:56;;;;;;;12.23;3.10;;;;;;;28.16;37.42;100365.88;5034976;28;20041;-81
2022/07/20 06:53:23;;;;;;;7.40;2.72;;;;;;;28.11;38.69;100369.59;5018671;28;20037;-81
2022/07/20 06:55:48;;;;;;;5.53;2.13;;;;;;;28.43;39.14;100377.97;5034773;28;20422;-81
2022/07/20 06:58:14;;;;;;;3.88;1.75;;;;;;;28.70;38.37;100372.97;5034757;28;20041;-81
2022/07/20 07:00:39;;;;;;;3.13;1.92;;;;;;;28.86;37.72;100376.72;5028709;28;20042;-81
2022/07/20 07:03:05;;;;;;;5.95;2.13;;;;;;;29.11;38.23;100375.06;5014820;28;20045;-81
2022/07/20 07:05:30;;;;;;;6.03;2.10;;;;;;;29.16;36.20;100374.13;5021102;28;20545;-80
2022/07/20 07:07:56;;;;;;;2.95;1.63;;;;;;;29.10;32.28;100382.84;5018163;28;20044;-80
2022/07/20 07:10:21;;;;;;;4.55;1.65;;;;;;;29.30;34.11;100377.69;5034624;28;20041;-81
2022/07/20 07:12:47;;;;;;;4.57;1.75;;;;;;;29.39;33.94;100377.97;5034541;28;20075;-81
2022/07/20 07:15:13;;;;;;;7.35;1.70;;;;;;;29.59;32.47;100377.16;5052515;28;20065;-81
2022/07/20 07:17:38;;;;;;;4.85;1.75;;;;;;;29.61;33.54;100380.22;5051151;28;20118;-81
2022/07/20 07:20:05;;;;;;;7.20;1.90;;;;;;;29.95;33.56;100382.91;5017753;28;20040;-81
2022/07/20 07:22:32;;;;;;;3.33;1.77;;;;;;;30.14;33.34;100368.31;5017977;28;20037;-81
2022/07/20 07:24:57;;;;;;;3.80;1.90;;;;;;;30.16;35.09;100376.34;5052253;28;20414;-81
2022/07/20 07:27:23;;;;;;;6.90;1.83;;;;;;;29.51;36.40;100370.63;5052279;28;20043;-81
2022/07/20 07:29:49;;;;;;;6.93;2.33;;;;;;;29.42;37.20;100385.41;5017713;28;20051;-81
2022/07/20 07:32:15;;;;;;;5.43;2.00;;;;;;;29.95;36.64;100379.28;5034308;28;20060;-81
2022/07/20 07:34:40;;;;;;;3.72;2.00;;;;;;;30.34;36.08;100370.28;5033733;28;20128;-81
2022/07/20 07:37:06;;;;;;;3.85;1.83;;;;;;;30.62;34.58;100377.25;5017958;28;20116;-81
2022/07/20 07:39:31;;;;;;;5.20;1.92;;;;;;;30.78;35.40;100370.22;5051637;28;20045;-81
2022/07/20 07:41:57;;;;;;;5.43;2.10;;;;;;;31.17;34.73;100375.44;5034066;28;20059;-81
2022/07/20 07:44:22;;;;;;;5.28;1.98;;;;;;;30.59;35.96;100366.94;5033216;28;20099;-81
2022/07/20 07:46:48;;;;;;;5.18;2.17;;;;;;;30.84;33.78;100371.59;5017765;28;20098;-81
2022/07/20 07:49:14;;;;;;;3.40;1.80;;;;;;;30.94;34.88;100374.63;5033588;28;20049;-81
2022/07/20 07:51:39;;;;;;;4.63;2.08;;;;;;;30.90;34.96;100377.88;5017713;28;20045;-81
2022/07/20 07:54:05;;;;;;;6.68;2.20;;;;;;;31.19;34.07;100372.75;5033901;28;20032;-81
2022/07/20 07:56:31;;;;;;;4.97;2.10;;;;;;;31.23;35.02;100381.75;5034099;28;20434;-81
2022/07/20 07:58:56;;;;;;;5.95;2.42;;;;;;;31.52;34.55;100379.41;5033771;28;20048;-81
2022/07/20 08:01:22;;;;;;;6.65;2.20;;;;;;;31.80;33.43;100373.47;5033742;28;20039;-81
2022/07/20 08:03:47;;;;;;;5.68;2.40;;;;;;;31.73;32.93;100376.34;5050828;28;20127;-81
2022/07/20 08:06:13;;;;;;;4.13;2.30;;;;;;;31.99;33.97;100375.88;5000930;28;20094;-81
2022/07/20 08:08:38;;;;;;;6.72;2.40;;;;;;;31.71;33.06;100376.91;5033422;28;20071;-81
2022/07/20 08:11:04;;;;;;;2.83;1.95;;;;;;;31.65;32.84;100379.25;5033793;28;20029;-82
2022/07/20 08:13:30;;;;;;;4.32;2.03;;;;;;;31.52;30.39;100370.06;5016396;28;20059;-83
2022/07/20 08:15:55;;;;;;;6.75;2.03;;;;;;;31.56;29.82;100379.06;5033516;28;20398;-82
2022/07/20 08:18:21;;;;;;;4.95;2.05;;;;;;;31.64;26.27;100376.94;5033125;28;20554;-82
2022/07/20 08:20:47;;;;;;;5.35;1.98;;;;;;;31.32;28.17;100378.31;5050678;28;20422;-82
2022/07/20 08:23:12;;;;;;;3.60;1.98;;;;;;;31.52;25.56;100375.78;5033210;28;20064;-82
2022/07/20 08:25:38;;;;;;;5.57;2.03;;;;;;;32.00;25.87;100380.28;5050915;28;20033;-82
2022/07/20 08:28:22;;;;;;;6.85;2.10;;;;;;;32.34;27.34;100379.78;5016658;28;20410;-82
2022/07/20 08:30:50;;;;;;;6.22;2.13;;;;;;;32.71;28.49;100383.81;5051064;28;20053;-82
2022/07/20 08:33:16;;;;;;;8.73;2.05;;;;;;;33.05;28.39;100383.94;5035611;28;20051;-82
2022/07/20 08:35:45;;;;;;;7.25;2.17;;;;;;;33.06;27.96;100373.97;5033420;28;20048;-80
2022/07/20 08:38:10;;;;;;;4.70;1.80;;;;;;;32.56;28.45;100375.25;5050874;28;20057;-81
2022/07/20 08:40:39;;;;;;;5.20;2.03;;;;;;;33.12;26.42;100376.63;5032673;28;20037;-82
2022/07/20 08:43:05;;;;;;;2.83;1.77;;;;;;;33.22;27.29;100386.91;5033064;28;20088;-82
2022/07/20 08:45:31;;;;;;;3.63;1.77;;;;;;;32.76;26.38;100368.44;5050533;28;20143;-82
2022/07/20 08:48:02;;;;;;;4.82;1.92;;;;;;;33.18;25.03;100383.66;5033014;28;20045;-82
2022/07/20 08:50:30;;;;;;;4.43;2.00;;;;;;;33.33;24.89;100379.13;4996654;28;20050;-82
2022/07/20 08:52:56;;;;;;;5.38;1.73;;;;;;;33.22;23.57;100380.38;5013271;28;20045;-82
2022/07/20 08:55:22;;;;;;;3.85;2.00;;;;;;;33.04;24.59;100379.53;5029249;28;20033;-82
2022/07/20 08:57:49;;;;;;;3.70;1.70;;;;;;;33.08;24.59;100376.28;5030746;28;20072;-82
2022/07/20 09:00:15;;;;;;;3.60;1.63;;;;;;;33.18;24.36;100366.44;5030429;28;20529;-82
2022/07/20 09:02:47;;;;;;;3.22;1.50;;;;;;;33.18;22.66;100369.31;5012718;28;20029;-82
2022/07/20 09:05:13;;;;;;;;;;;;;;;33.14;24.08;100368.94;5050251;28;20037;-81
2022/07/20 09:07:43;;;;;;;4.85;1.85;;;;;;;32.89;23.97;100376.78;5050849;28;19970;-82
2022/07/20 09:10:20;;;;;;;6.70;1.80;;;;;;;32.87;24.32;100370.88;5016315;28;20450;-81
2022/07/20 09:12:54;;;;;;;3.63;1.80;;;;;;;33.05;23.85;100377.44;5051406;28;20495;-82
2022/07/20 09:15:28;;;;;;;2.97;1.60;;;;;;;33.28;25.79;100370.16;5032458;28;20406;-81
2022/07/20 09:18:17;;;;;;;6.47;2.00;;;;;;;33.12;26.48;100377.34;5050731;28;20419;-81
2022/07/20 09:20:48;;;;;;;3.65;1.70;;;;;;;32.96;23.64;100372.34;5030267;28;20128;-82
2022/07/20 09:23:22;;;;;;;4.45;1.85;;;;;;;33.25;23.56;100371.34;5030527;28;20498;-81
2022/07/20 09:26:15;;;;;;;3.63;1.58;;;;;;;33.44;24.10;100355.66;5012473;28;20111;-81
2022/07/20 09:28:42;;;;;;;;;;;;;;;33.83;24.07;100362.53;5027685;28;20435;-82
2022/07/20 09:31:31;;;;;;;4.50;1.92;;;;;;;34.04;22.07;100360.75;5030420;28;19917;-81
2022/07/20 09:33:59;;;;;;;4.63;2.00;;;;;;;33.98;23.65;100368.88;5041846;28;20041;-82
2022/07/20 09:36:26;;;;;;;6.35;1.73;;;;;;;34.11;20.44;100365.66;5032729;28;20037;-82
2022/07/20 09:38:52;;;;;;;5.25;1.90;;;;;;;34.11;19.75;100365.66;5032091;28;20044;-82
2022/07/20 09:41:29;;;;;;;4.88;1.75;;;;;;;34.27;22.17;100365.47;5033003;28;20040;-82
2022/07/20 09:43:57;;;;;;;4.93;1.90;;;;;;;34.05;21.94;100373.03;5050943;28;20052;-82
2022/07/20 09:46:27;;;;;;;6.85;1.77;;;;;;;33.88;21.22;100367.28;5032648;28;20060;-81
2022/07/20 09:48:57;;;;;;;5.72;1.80;;;;;;;33.82;23.70;100356.03;5049937;28;20079;-82
2022/07/20 09:51:22;;;;;;;4.97;2.30;;;;;;;33.99;22.20;100369.63;5050362;28;20041;-82
2022/07/20 09:53:49;;;;;;;3.97;2.08;;;;;;;33.72;21.79;100369.56;5049880;28;20052;-81
2022/07/20 09:56:16;;;;;;;5.30;1.70;;;;;;;33.84;22.06;100364.06;5016193;28;20402;-81
2022/07/20 09:58:48;;;;;;;5.22;2.10;;;;;;;34.05;22.00;100361.53;5049723;28;20049;-81
2022/07/20 10:01:19;;;;;;;8.50;2.00;;;;;;;33.68;22.59;100364.25;5032343;28;20132;-81
2022/07/20 10:03:47;;;;;;;4.50;2.00;;;;;;;33.88;21.16;100362.28;5049527;28;20053;-80
2022/07/20 10:06:14;;;;;;;3.80;1.80;;;;;;;33.72;21.53;100369.56;5032082;28;20132;-81
2022/07/20 10:08:40;;;;;;;5.20;1.77;;;;;;;33.84;21.45;100353.31;5018530;28;20415;-81
2022/07/20 10:11:05;;;;;;;5.30;2.00;;;;;;;33.78;21.15;100355.69;5035780;28;20041;-82
2022/07/20 10:13:32;;;;;;;6.03;2.03;;;;;;;34.05;21.70;100362.25;5053410;28;20501;-82
2022/07/20 10:16:06;;;;;;;6.40;2.20;;;;;;;34.18;21.02;100364.81;5053415;28;20130;-82
2022/07/20 10:18:32;;;;;;;3.53;1.90;;;;;;;33.59;21.91;100364.13;5035443;28;20043;-82
2022/07/20 10:20:57;;;;;;;7.00;2.05;;;;;;;34.12;22.09;100358.53;5035333;28;20033;-81
2022/07/20 10:23:27;;;;;;;5.22;1.90;;;;;;;34.58;21.48;100360.78;5053593;28;20067;-83
2022/07/20 10:25:53;;;;;;;8.82;2.20;;;;;;;35.01;21.50;100357.09;5053295;28;20418;-83
2022/07/20 10:28:36;;;;;;;6.30;2.00;;;;;;;35.20;21.58;100350.66;5035343;28;20045;-83
2022/07/20 10:31:10;;;;;;;4.13;1.92;;;;;;;35.16;21.23;100349.56;5053081;28;20059;-83
2022/07/20 10:33:38;;;;;;;6.00;1.85;;;;;;;35.10;19.68;100341.94;5034902;28;20052;-83
2022/07/20 10:38:56;;;;;;;6.32;2.05;;;;;;;34.45;19.77;100347.56;5053602;28;20043;-82
2022/07/20 10:41:36;;;;;;;6.18;2.10;;;;;;;34.28;21.45;100338.22;5053105;28;20041;-81
2022/07/20 10:44:38;;;;;;;3.45;1.88;;;;;;;34.44;21.63;100328.00;5053105;28;20142;-82
2022/07/20 10:47:05;;;;;;;;;;;;;;;34.26;20.44;100332.28;4952972;29;20047;-82
2022/07/20 10:49:59;;;;;;;6.53;2.00;;;;;;;34.50;19.20;100337.09;5032402;28;19928;-82
2022/07/20 10:52:26;;;;;;;5.65;2.05;;;;;;;34.70;18.70;100326.50;5053084;28;20120;-82
2022/07/20 10:54:52;;;;;;;4.07;1.90;;;;;;;34.83;18.29;100328.94;5052561;28;20048;-83
2022/07/20 10:57:20;;;;;;;4.07;1.90;;;;;;;35.31;18.68;100331.97;5034883;28;20556;-82
2022/07/20 10:59:45;;;;;;;4.03;2.00;;;;;;;35.06;19.16;100320.69;5034404;28;20410;-82
2022/07/20 11:02:11;;;;;;;2.67;2.08;;;;;;;35.27;17.41;100328.78;5052591;28;20045;-82
2022/07/20 11:04:43;;;;;;;5.75;2.00;;;;;;;35.20;18.35;100315.28;5034241;28;20132;-81
2022/07/20 11:07:27;;;;;;;2.95;1.90;;;;;;;35.01;17.31;100321.75;5034500;28;20562;-80
2022/07/20 11:09:52;;;;;;;4.22;1.80;;;;;;;35.13;17.77;100316.16;5052501;28;20073;-80
2022/07/20 11:12:29;;;;;;;5.22;2.00;;;;;;;34.68;18.99;100311.91;5052798;28;20064;-80
2022/07/20 11:14:55;;;;;;;5.95;1.92;;;;;;;34.69;19.31;100308.44;5052504;28;20110;-80
2022/07/20 11:17:21;;;;;;;5.82;2.28;;;;;;;34.79;19.10;100300.56;5018109;28;20044;-81
2022/07/20 11:19:47;;;;;;;4.63;2.20;;;;;;;34.91;18.28;100301.53;5051551;28;20075;-80
2022/07/20 11:22:13;;;;;;;4.05;2.15;;;;;;;35.08;19.01;100306.44;5033316;28;20068;-81
2022/07/20 11:24:38;;;;;;;5.05;1.83;;;;;;;34.99;18.12;100302.16;5052317;28;20065;-80
2022/07/20 11:27:15;;;;;;;2.47;2.20;;;;;;;35.31;19.22;100309.69;5034649;28;20537;-80
2022/07/20 11:29:46;;;;;;;3.55;2.20;;;;;;;35.24;17.77;100306.94;5049708;28;20041;-80
2022/07/20 11:32:12;;;;;;;6.35;2.28;;;;;;;35.03;17.68;100305.34;5017914;28;20048;-80